Mu? Airport


Codes: LTCK/MSR
Name: Mu? Airport
City: Mu?
Country: Turkey
Elevation: 4157 ft.
Wikipedia:

Photos at Mu? Airport


   Photos courtesy of SpottingLog. You can add your own sightings and photos by signing up for a free trial today.



No photos found.

Weather at Mu? Airport


Time (UTC)DescriptionTempratureWindCloud coverageVisibilityPressureHumidity
25-Jun-2024 12:00Clear Sky32°C4 mph, NW0%10000m1003hPa22%
25-Jun-2024 15:00Light Rain28°C7 mph, E20%10000m1005hPa39%
25-Jun-2024 18:00Light Rain22°C2 mph, N29%10000m1007hPa59%
25-Jun-2024 21:00Clear Sky16°C0 mph, SW0%10000m1008hPa76%
26-Jun-2024 00:00Clear Sky15°C0 mph, S0%10000m1007hPa74%
26-Jun-2024 03:00Clear Sky16°C2 mph, W0%10000m1008hPa74%
26-Jun-2024 06:00Clear Sky22°C2 mph, W0%10000m1006hPa51%
26-Jun-2024 09:00Clear Sky28°C4 mph, NW0%10000m1003hPa33%
26-Jun-2024 12:00Clear Sky30°C7 mph, NW0%10000m1000hPa23%
26-Jun-2024 15:00Clear Sky26°C13 mph, NW1%10000m1001hPa36%
26-Jun-2024 18:00Clear Sky18°C4 mph, NW1%10000m1006hPa55%
26-Jun-2024 21:00Clear Sky15°C2 mph, NE0%10000m1008hPa60%
27-Jun-2024 00:00Clear Sky13°C2 mph, NE0%10000m1010hPa66%
27-Jun-2024 03:00Clear Sky13°C2 mph, N0%10000m1011hPa70%
27-Jun-2024 06:00Clear Sky19°C9 mph, NE0%10000m1010hPa42%
27-Jun-2024 09:00Clear Sky25°C9 mph, NE0%10000m1007hPa28%
27-Jun-2024 12:00Clear Sky28°C9 mph, NE0%10000m1005hPa23%
27-Jun-2024 15:00Clear Sky26°C7 mph, N0%10000m1005hPa33%
27-Jun-2024 18:00Clear Sky19°C0 mph, SE0%10000m1008hPa37%
27-Jun-2024 21:00Clear Sky17°C0 mph, N0%10000m1008hPa46%
28-Jun-2024 00:00Clear Sky15°C2 mph, NW0%10000m1008hPa55%
28-Jun-2024 03:00Clear Sky16°C0 mph, NW0%10000m1009hPa60%
28-Jun-2024 06:00Clear Sky22°C4 mph, NE0%10000m1007hPa43%
28-Jun-2024 09:00Clear Sky27°C4 mph, N0%10000m1004hPa31%
28-Jun-2024 12:00Clear Sky30°C4 mph, N0%10000m1002hPa26%
28-Jun-2024 15:00Clear Sky29°C2 mph, N0%10000m1001hPa34%
28-Jun-2024 18:00Clear Sky22°C2 mph, S0%10000m1003hPa37%
28-Jun-2024 21:00Clear Sky19°C2 mph, NW0%10000m1004hPa43%
29-Jun-2024 00:00Clear Sky17°C2 mph, NW0%10000m1005hPa49%
29-Jun-2024 03:00Clear Sky18°C2 mph, N0%10000m1006hPa59%
29-Jun-2024 06:00Clear Sky24°C4 mph, NE0%10000m1005hPa45%
29-Jun-2024 09:00Clear Sky28°C4 mph, N0%10000m1003hPa33%
29-Jun-2024 12:00Clear Sky30°C4 mph, N0%10000m1001hPa24%
29-Jun-2024 15:00Few Clouds28°C2 mph, NW11%10000m1001hPa34%
29-Jun-2024 18:00Clear Sky22°C4 mph, NE7%10000m1004hPa39%
29-Jun-2024 21:00Clear Sky18°C2 mph, NW0%10000m1006hPa63%
30-Jun-2024 00:00Clear Sky16°C2 mph, NW0%10000m1007hPa69%
30-Jun-2024 03:00Clear Sky17°C0 mph, NE0%10000m1008hPa71%
30-Jun-2024 06:00Clear Sky23°C4 mph, NE0%10000m1006hPa51%
30-Jun-2024 09:00Clear Sky29°C2 mph, NW0%10000m1003hPa32%